sensor_id;sensor_type;location;lat;lon;timestamp;pressure;altitude;pressure_sealevel;temperature;humidity
48976;BME280;34791;52.752;8.346;2023-02-04T00:01:09;149709.47;;;8.94;100.00
48976;BME280;34791;52.752;8.346;2023-02-04T00:03:34;149709.47;;;8.94;100.00
48976;BME280;34791;52.752;8.346;2023-02-04T00:05:59;149709.47;;;8.94;100.00
48976;BME280;34791;52.752;8.346;2023-02-04T00:08:25;149709.47;;;8.94;100.00
48976;BME280;34791;52.752;8.346;2023-02-04T00:10:50;149709.47;;;8.94;100.00
48976;BME280;34791;52.752;8.346;2023-02-04T00:13:15;149709.47;;;8.94;100.00
48976;BME280;34791;52.752;8.346;2023-02-04T00:15:41;149709.47;;;8.94;100.00
48976;BME280;34791;52.752;8.346;2023-02-04T00:18:06;149709.47;;;8.94;100.00
48976;BME280;34791;52.752;8.346;2023-02-04T00:20:32;149709.47;;;8.94;100.00
48976;BME280;34791;52.752;8.346;2023-02-04T00:22:59;149709.47;;;8.94;100.00
48976;BME280;34791;52.752;8.346;2023-02-04T00:25:24;149709.47;;;8.94;100.00
48976;BME280;34791;52.752;8.346;2023-02-04T00:27:49;149709.47;;;8.94;100.00
48976;BME280;34791;52.752;8.346;2023-02-04T00:30:15;149709.47;;;8.94;100.00
48976;BME280;34791;52.752;8.346;2023-02-04T00:32:41;149709.47;;;8.94;100.00
48976;BME280;34791;52.752;8.346;2023-02-04T00:35:07;149709.47;;;8.94;100.00
48976;BME280;34791;52.752;8.346;2023-02-04T00:37:33;149709.47;;;8.94;100.00
48976;BME280;34791;52.752;8.346;2023-02-04T00:39:59;149709.47;;;8.94;100.00
48976;BME280;34791;52.752;8.346;2023-02-04T00:42:24;149709.47;;;8.94;100.00
48976;BME280;34791;52.752;8.346;2023-02-04T00:44:49;149709.47;;;8.94;100.00
48976;BME280;34791;52.752;8.346;2023-02-04T00:47:15;149709.47;;;8.94;100.00
48976;BME280;34791;52.752;8.346;2023-02-04T00:49:40;149709.47;;;8.94;100.00
48976;BME280;34791;52.752;8.346;2023-02-04T00:52:06;149709.47;;;8.94;100.00
48976;BME280;34791;52.752;8.346;2023-02-04T00:54:31;149709.47;;;8.94;100.00
48976;BME280;34791;52.752;8.346;2023-02-04T00:56:57;149709.47;;;8.94;100.00
48976;BME280;34791;52.752;8.346;2023-02-04T00:59:23;148627.50;;;4.67;100.00
48976;BME280;34791;52.752;8.346;2023-02-04T01:01:48;148627.50;;;4.67;100.00
48976;BME280;34791;52.752;8.346;2023-02-04T01:04:15;148627.50;;;4.67;100.00
48976;BME280;34791;52.752;8.346;2023-02-04T01:06:41;148627.50;;;4.67;100.00
48976;BME280;34791;52.752;8.346;2023-02-04T01:09:06;148627.50;;;4.67;100.00
48976;BME280;34791;52.752;8.346;2023-02-04T01:11:32;148627.50;;;4.67;100.00
48976;BME280;34791;52.752;8.346;2023-02-04T01:13:58;148627.50;;;4.67;100.00
48976;BME280;34791;52.752;8.346;2023-02-04T01:16:23;148627.50;;;4.67;100.00
48976;BME280;34791;52.752;8.346;2023-02-04T01:18:49;148681.66;;;4.89;100.00
48976;BME280;34791;52.752;8.346;2023-02-04T01:21:15;148681.66;;;4.89;100.00
48976;BME280;34791;52.752;8.346;2023-02-04T01:23:41;148681.66;;;4.89;100.00
48976;BME280;34791;52.752;8.346;2023-02-04T01:26:07;148681.66;;;4.89;100.00
48976;BME280;34791;52.752;8.346;2023-02-04T01:28:32;148681.66;;;4.89;100.00
48976;BME280;34791;52.752;8.346;2023-02-04T01:30:58;148624.94;;;4.66;100.00
48976;BME280;34791;52.752;8.346;2023-02-04T01:33:23;148624.94;;;4.66;100.00
48976;BME280;34791;52.752;8.346;2023-02-04T01:35:48;148624.94;;;4.66;100.00
48976;BME280;34791;52.752;8.346;2023-02-04T01:38:14;148624.94;;;4.66;100.00
48976;BME280;34791;52.752;8.346;2023-02-04T01:40:40;148624.94;;;4.66;100.00
48976;BME280;34791;52.752;8.346;2023-02-04T01:43:06;148624.94;;;4.66;100.00
48976;BME280;34791;52.752;8.346;2023-02-04T01:45:32;148624.94;;;4.66;100.00
48976;BME280;34791;52.752;8.346;2023-02-04T01:48:01;148624.94;;;4.66;100.00
48976;BME280;34791;52.752;8.346;2023-02-04T01:50:27;148624.94;;;4.66;100.00
48976;BME280;34791;52.752;8.346;2023-02-04T01:52:53;148624.94;;;4.66;100.00
48976;BME280;34791;52.752;8.346;2023-02-04T01:55:20;148624.94;;;4.66;100.00
48976;BME280;34791;52.752;8.346;2023-02-04T01:57:49;148624.94;;;4.66;100.00
48976;BME280;34791;52.752;8.346;2023-02-04T02:00:30;148624.94;;;4.66;100.00
48976;BME280;34791;52.752;8.346;2023-02-04T02:02:57;148624.94;;;4.66;100.00
48976;BME280;34791;52.752;8.346;2023-02-04T02:05:31;148624.94;;;4.66;100.00
48976;BME280;34791;52.752;8.346;2023-02-04T02:08:00;148624.94;;;4.66;100.00
48976;BME280;34791;52.752;8.346;2023-02-04T02:10:27;148624.94;;;4.66;100.00
48976;BME280;34791;52.752;8.346;2023-02-04T02:12:54;148624.94;;;4.66;100.00
48976;BME280;34791;52.752;8.346;2023-02-04T02:15:20;148624.94;;;4.66;100.00
48976;BME280;34791;52.752;8.346;2023-02-04T02:17:46;148624.94;;;4.66;100.00
48976;BME280;34791;52.752;8.346;2023-02-04T02:20:15;148624.94;;;4.66;100.00
48976;BME280;34791;52.752;8.346;2023-02-04T02:23:12;148624.94;;;4.66;100.00
48976;BME280;34791;52.752;8.346;2023-02-04T02:25:39;148624.94;;;4.66;100.00
48976;BME280;34791;52.752;8.346;2023-02-04T02:28:14;148624.94;;;4.66;100.00
48976;BME280;34791;52.752;8.346;2023-02-04T02:30:41;148624.94;;;4.66;100.00
48976;BME280;34791;52.752;8.346;2023-02-04T02:33:12;148624.94;;;4.66;100.00
48976;BME280;34791;52.752;8.346;2023-02-04T02:35:42;148624.94;;;4.66;100.00
48976;BME280;34791;52.752;8.346;2023-02-04T02:38:10;148624.94;;;4.66;100.00
48976;BME280;34791;52.752;8.346;2023-02-04T02:40:36;148624.94;;;4.66;100.00
48976;BME280;34791;52.752;8.346;2023-02-04T02:43:02;148624.94;;;4.66;100.00
48976;BME280;34791;52.752;8.346;2023-02-04T02:45:30;148624.94;;;4.66;100.00
48976;BME280;34791;52.752;8.346;2023-02-04T02:47:57;148624.94;;;4.66;100.00
48976;BME280;34791;52.752;8.346;2023-02-04T02:50:26;148624.94;;;4.66;100.00
48976;BME280;34791;52.752;8.346;2023-02-04T02:52:53;148624.94;;;4.66;100.00
48976;BME280;34791;52.752;8.346;2023-02-04T02:55:20;148624.94;;;4.66;100.00
48976;BME280;34791;52.752;8.346;2023-02-04T02:57:48;148624.94;;;4.66;100.00
48976;BME280;34791;52.752;8.346;2023-02-04T03:00:18;148624.94;;;4.66;100.00
48976;BME280;34791;52.752;8.346;2023-02-04T03:02:53;148624.94;;;4.66;100.00
48976;BME280;34791;52.752;8.346;2023-02-04T03:05:18;148624.94;;;4.66;100.00
48976;BME280;34791;52.752;8.346;2023-02-04T03:07:44;148624.94;;;4.66;100.00
48976;BME280;34791;52.752;8.346;2023-02-04T03:10:09;148624.94;;;4.66;100.00
48976;BME280;34791;52.752;8.346;2023-02-04T03:12:35;148120.31;;;2.67;100.00
48976;BME280;34791;52.752;8.346;2023-02-04T03:15:02;148120.31;;;2.67;100.00
48976;BME280;34791;52.752;8.346;2023-02-04T03:17:28;148120.31;;;2.67;100.00
48976;BME280;34791;52.752;8.346;2023-02-04T03:19:54;148120.31;;;2.67;100.00
48976;BME280;34791;52.752;8.346;2023-02-04T03:22:19;148120.31;;;2.67;100.00
48976;BME280;34791;52.752;8.346;2023-02-04T03:24:45;148120.31;;;2.67;100.00
48976;BME280;34791;52.752;8.346;2023-02-04T03:27:10;148120.31;;;2.67;100.00
48976;BME280;34791;52.752;8.346;2023-02-04T03:29:41;148120.31;;;2.67;100.00
48976;BME280;34791;52.752;8.346;2023-02-04T03:32:07;148120.31;;;2.67;100.00
48976;BME280;34791;52.752;8.346;2023-02-04T03:34:32;148120.31;;;2.67;100.00
48976;BME280;34791;52.752;8.346;2023-02-04T03:36:58;148120.31;;;2.67;100.00
48976;BME280;34791;52.752;8.346;2023-02-04T03:39:23;148120.31;;;2.67;100.00
48976;BME280;34791;52.752;8.346;2023-02-04T03:41:48;148156.31;;;2.81;100.00
48976;BME280;34791;52.752;8.346;2023-02-04T03:44:14;148139.56;;;2.75;100.00
48976;BME280;34791;52.752;8.346;2023-02-04T03:46:39;148120.31;;;2.67;100.00
48976;BME280;34791;52.752;8.346;2023-02-04T03:49:04;148104.84;;;2.61;100.00
48976;BME280;34791;52.752;8.346;2023-02-04T03:51:30;148066.28;;;2.46;100.00
48976;BME280;34791;52.752;8.346;2023-02-04T03:53:58;148022.53;;;2.28;100.00
48976;BME280;34791;52.752;8.346;2023-02-04T03:56:24;148014.84;;;2.25;100.00
48976;BME280;34791;52.752;8.346;2023-02-04T03:58:49;147994.25;;;2.17;100.00
48976;BME280;34791;52.752;8.346;2023-02-04T04:01:14;147994.25;;;2.17;100.00
48976;BME280;34791;52.752;8.346;2023-02-04T04:03:40;147985.28;;;2.14;100.00
48976;BME280;34791;52.752;8.346;2023-02-04T04:06:05;147986.56;;;2.14;100.00
48976;BME280;34791;52.752;8.346;2023-02-04T04:08:34;147996.88;;;2.18;100.00
48976;BME280;34791;52.752;8.346;2023-02-04T04:10:59;148019.97;;;2.27;100.00
48976;BME280;34791;52.752;8.346;2023-02-04T04:13:24;148027.72;;;2.30;100.00
48976;BME280;34791;52.752;8.346;2023-02-04T04:15:50;148025.09;;;2.29;100.00
48976;BME280;34791;52.752;8.346;2023-02-04T04:18:15;148030.28;;;2.31;100.00
48976;BME280;34791;52.752;8.346;2023-02-04T04:20:41;148050.84;;;2.40;100.00
48976;BME280;34791;52.752;8.346;2023-02-04T04:23:06;148058.59;;;2.43;100.00
48976;BME280;34791;52.752;8.346;2023-02-04T04:25:43;148043.13;;;2.37;100.00
48976;BME280;34791;52.752;8.346;2023-02-04T04:28:08;148034.16;;;2.33;100.00
48976;BME280;34791;52.752;8.346;2023-02-04T04:30:33;148052.13;;;2.40;100.00
48976;BME280;34791;52.752;8.346;2023-02-04T04:32:59;148045.69;;;2.38;100.00
48976;BME280;34791;52.752;8.346;2023-02-04T04:35:24;148045.69;;;2.38;100.00
48976;BME280;34791;52.752;8.346;2023-02-04T04:37:49;148035.44;;;2.33;100.00
48976;BME280;34791;52.752;8.346;2023-02-04T04:40:15;148048.25;;;2.39;100.00
48976;BME280;34791;52.752;8.346;2023-02-04T04:42:40;148048.25;;;2.39;100.00
48976;BME280;34791;52.752;8.346;2023-02-04T04:45:07;148036.72;;;2.34;100.00
48976;BME280;34791;52.752;8.346;2023-02-04T04:47:33;148035.44;;;2.33;100.00
48976;BME280;34791;52.752;8.346;2023-02-04T04:49:59;148043.13;;;2.37;100.00
48976;BME280;34791;52.752;8.346;2023-02-04T04:52:24;148046.97;;;2.38;100.00
48976;BME280;34791;52.752;8.346;2023-02-04T04:54:49;148032.84;;;2.32;100.00
48976;BME280;34791;52.752;8.346;2023-02-04T04:57:15;148022.53;;;2.28;100.00
48976;BME280;34791;52.752;8.346;2023-02-04T04:59:40;148018.69;;;2.27;100.00
48976;BME280;34791;52.752;8.346;2023-02-04T05:02:05;148032.84;;;2.32;100.00
48976;BME280;34791;52.752;8.346;2023-02-04T05:04:31;148038.00;;;2.34;100.00
48976;BME280;34791;52.752;8.346;2023-02-04T05:06:56;148058.59;;;2.43;100.00
48976;BME280;34791;52.752;8.346;2023-02-04T05:09:21;148063.72;;;2.45;100.00
48976;BME280;34791;52.752;8.346;2023-02-04T05:11:47;148079.13;;;2.51;100.00
48976;BME280;34791;52.752;8.346;2023-02-04T05:14:12;148107.44;;;2.62;100.00
48976;BME280;34791;52.752;8.346;2023-02-04T05:16:38;148097.16;;;2.58;100.00
48976;BME280;34791;52.752;8.346;2023-02-04T05:19:06;148086.81;;;2.54;100.00
48976;BME280;34791;52.752;8.346;2023-02-04T05:21:31;148104.84;;;2.61;100.00
48976;BME280;34791;52.752;8.346;2023-02-04T05:23:57;148095.88;;;2.57;100.00
48976;BME280;34791;52.752;8.346;2023-02-04T05:26:22;148099.72;;;2.59;100.00
48976;BME280;34791;52.752;8.346;2023-02-04T05:28:47;148110.00;;;2.63;100.00
48976;BME280;34791;52.752;8.346;2023-02-04T05:31:13;148113.84;;;2.64;100.00
48976;BME280;34791;52.752;8.346;2023-02-04T05:33:38;148126.72;;;2.70;100.00
48976;BME280;34791;52.752;8.346;2023-02-04T05:36:04;148142.16;;;2.76;100.00
48976;BME280;34791;52.752;8.346;2023-02-04T05:38:29;148148.56;;;2.78;100.00
48976;BME280;34791;52.752;8.346;2023-02-04T05:40:54;148138.28;;;2.74;100.00
48976;BME280;34791;52.752;8.346;2023-02-04T05:43:20;148128.00;;;2.70;100.00
48976;BME280;34791;52.752;8.346;2023-02-04T05:45:45;148110.00;;;2.63;100.00
48976;BME280;34791;52.752;8.346;2023-02-04T05:48:10;148112.56;;;2.64;100.00
48976;BME280;34791;52.752;8.346;2023-02-04T05:50:36;148112.56;;;2.64;100.00
48976;BME280;34791;52.752;8.346;2023-02-04T05:53:01;148112.56;;;2.64;100.00
48976;BME280;34791;52.752;8.346;2023-02-04T05:55:26;148112.56;;;2.64;100.00
48976;BME280;34791;52.752;8.346;2023-02-04T05:57:52;148112.56;;;2.64;100.00
48976;BME280;34791;52.752;8.346;2023-02-04T06:00:17;148112.56;;;2.64;100.00
48976;BME280;34791;52.752;8.346;2023-02-04T06:02:43;148112.56;;;2.64;100.00
48976;BME280;34791;52.752;8.346;2023-02-04T06:05:08;148112.56;;;2.64;100.00
48976;BME280;34791;52.752;8.346;2023-02-04T06:07:34;148068.84;;;2.47;100.00
48976;BME280;34791;52.752;8.346;2023-02-04T06:09:59;148053.41;;;2.41;100.00
48976;BME280;34791;52.752;8.346;2023-02-04T06:12:25;148053.41;;;2.41;100.00
48976;BME280;34791;52.752;8.346;2023-02-04T06:14:50;148053.41;;;2.41;100.00
48976;BME280;34791;52.752;8.346;2023-02-04T06:17:15;148053.41;;;2.41;100.00
48976;BME280;34791;52.752;8.346;2023-02-04T06:19:41;148053.41;;;2.41;100.00
48976;BME280;34791;52.752;8.346;2023-02-04T06:22:06;148053.41;;;2.41;100.00
48976;BME280;34791;52.752;8.346;2023-02-04T06:24:31;148053.41;;;2.41;100.00
48976;BME280;34791;52.752;8.346;2023-02-04T06:26:57;147945.44;;;1.98;100.00
48976;BME280;34791;52.752;8.346;2023-02-04T06:29:22;147945.44;;;1.98;100.00
48976;BME280;34791;52.752;8.346;2023-02-04T06:31:48;147945.44;;;1.98;100.00
48976;BME280;34791;52.752;8.346;2023-02-04T06:34:13;147950.56;;;2.00;100.00
48976;BME280;34791;52.752;8.346;2023-02-04T06:36:39;147950.56;;;2.00;100.00
48976;BME280;34791;52.752;8.346;2023-02-04T06:39:04;147978.84;;;2.11;100.00
48976;BME280;34791;52.752;8.346;2023-02-04T06:41:30;147994.25;;;2.17;100.00
48976;BME280;34791;52.752;8.346;2023-02-04T06:43:55;147992.97;;;2.17;100.00
48976;BME280;34791;52.752;8.346;2023-02-04T06:46:20;147992.97;;;2.17;100.00
48976;BME280;34791;52.752;8.346;2023-02-04T06:48:46;147992.97;;;2.17;100.00
48976;BME280;34791;52.752;8.346;2023-02-04T06:51:11;147992.97;;;2.17;100.00
48976;BME280;34791;52.752;8.346;2023-02-04T06:53:37;147992.97;;;2.17;100.00
48976;BME280;34791;52.752;8.346;2023-02-04T06:56:02;147992.97;;;2.17;100.00
48976;BME280;34791;52.752;8.346;2023-02-04T06:58:28;147992.97;;;2.17;100.00
48976;BME280;34791;52.752;8.346;2023-02-04T07:00:53;147992.97;;;2.17;100.00
48976;BME280;34791;52.752;8.346;2023-02-04T07:03:18;147992.97;;;2.17;100.00
48976;BME280;34791;52.752;8.346;2023-02-04T07:05:44;147992.97;;;2.17;100.00
48976;BME280;34791;52.752;8.346;2023-02-04T07:08:09;147992.97;;;2.17;100.00
48976;BME280;34791;52.752;8.346;2023-02-04T07:10:34;147992.97;;;2.17;100.00
48976;BME280;34791;52.752;8.346;2023-02-04T07:13:00;147992.97;;;2.17;100.00
48976;BME280;34791;52.752;8.346;2023-02-04T07:15:25;147992.97;;;2.17;100.00
48976;BME280;34791;52.752;8.346;2023-02-04T07:17:51;147992.97;;;2.17;100.00
48976;BME280;34791;52.752;8.346;2023-02-04T07:20:16;147992.97;;;2.17;100.00
48976;BME280;34791;52.752;8.346;2023-02-04T07:22:42;147992.97;;;2.17;100.00
48976;BME280;34791;52.752;8.346;2023-02-04T07:25:08;147992.97;;;2.17;100.00
48976;BME280;34791;52.752;8.346;2023-02-04T07:27:34;147992.97;;;2.17;100.00
48976;BME280;34791;52.752;8.346;2023-02-04T07:30:00;147992.97;;;2.17;100.00
48976;BME280;34791;52.752;8.346;2023-02-04T07:32:25;147992.97;;;2.17;100.00
48976;BME280;34791;52.752;8.346;2023-02-04T07:34:52;147992.97;;;2.17;100.00
48976;BME280;34791;52.752;8.346;2023-02-04T07:37:17;147950.56;;;2.00;100.00
48976;BME280;34791;52.752;8.346;2023-02-04T07:39:44;147950.56;;;2.00;100.00
48976;BME280;34791;52.752;8.346;2023-02-04T07:42:10;147950.56;;;2.00;100.00
48976;BME280;34791;52.752;8.346;2023-02-04T07:44:35;147950.56;;;2.00;100.00
48976;BME280;34791;52.752;8.346;2023-02-04T07:47:02;147950.56;;;2.00;100.00
48976;BME280;34791;52.752;8.346;2023-02-04T07:49:27;147950.56;;;2.00;100.00
48976;BME280;34791;52.752;8.346;2023-02-04T07:51:53;147950.56;;;2.00;100.00
48976;BME280;34791;52.752;8.346;2023-02-04T07:54:18;147950.56;;;2.00;100.00
48976;BME280;34791;52.752;8.346;2023-02-04T07:56:43;147950.56;;;2.00;100.00
48976;BME280;34791;52.752;8.346;2023-02-04T07:59:09;147950.56;;;2.00;100.00
48976;BME280;34791;52.752;8.346;2023-02-04T08:01:34;147950.56;;;2.00;100.00
48976;BME280;34791;52.752;8.346;2023-02-04T08:03:59;147950.56;;;2.00;100.00
48976;BME280;34791;52.752;8.346;2023-02-04T08:06:25;147950.56;;;2.00;100.00
48976;BME280;34791;52.752;8.346;2023-02-04T08:08:50;147950.56;;;2.00;100.00
48976;BME280;34791;52.752;8.346;2023-02-04T08:11:15;147950.56;;;2.00;100.00
48976;BME280;34791;52.752;8.346;2023-02-04T08:13:41;147950.56;;;2.00;100.00
48976;BME280;34791;52.752;8.346;2023-02-04T08:16:06;147950.56;;;2.00;100.00
48976;BME280;34791;52.752;8.346;2023-02-04T08:18:32;147950.56;;;2.00;100.00
48976;BME280;34791;52.752;8.346;2023-02-04T08:20:57;147950.56;;;2.00;100.00
48976;BME280;34791;52.752;8.346;2023-02-04T08:23:24;147950.56;;;2.00;100.00
48976;BME280;34791;52.752;8.346;2023-02-04T08:25:50;147950.56;;;2.00;100.00
48976;BME280;34791;52.752;8.346;2023-02-04T08:28:15;147950.56;;;2.00;100.00
48976;BME280;34791;52.752;8.346;2023-02-04T08:30:40;147950.56;;;2.00;100.00
48976;BME280;34791;52.752;8.346;2023-02-04T08:33:06;147950.56;;;2.00;100.00
48976;BME280;34791;52.752;8.346;2023-02-04T08:35:31;147950.56;;;2.00;100.00
48976;BME280;34791;52.752;8.346;2023-02-04T08:37:57;147950.56;;;2.00;100.00
48976;BME280;34791;52.752;8.346;2023-02-04T08:40:22;147950.56;;;2.00;100.00
48976;BME280;34791;52.752;8.346;2023-02-04T08:42:47;147950.56;;;2.00;100.00
48976;BME280;34791;52.752;8.346;2023-02-04T08:45:13;147950.56;;;2.00;100.00
48976;BME280;34791;52.752;8.346;2023-02-04T08:47:38;147950.56;;;2.00;100.00
48976;BME280;34791;52.752;8.346;2023-02-04T08:50:04;147950.56;;;2.00;100.00
48976;BME280;34791;52.752;8.346;2023-02-04T08:52:29;147950.56;;;2.00;100.00
48976;BME280;34791;52.752;8.346;2023-02-04T08:54:55;147950.56;;;2.00;100.00
48976;BME280;34791;52.752;8.346;2023-02-04T08:57:20;147950.56;;;2.00;100.00
48976;BME280;34791;52.752;8.346;2023-02-04T08:59:45;147950.56;;;2.00;100.00
48976;BME280;34791;52.752;8.346;2023-02-04T09:02:11;147950.56;;;2.00;100.00
48976;BME280;34791;52.752;8.346;2023-02-04T09:04:36;147950.56;;;2.00;100.00
48976;BME280;34791;52.752;8.346;2023-02-04T09:07:02;147950.56;;;2.00;100.00
48976;BME280;34791;52.752;8.346;2023-02-04T09:09:27;147950.56;;;2.00;100.00
48976;BME280;34791;52.752;8.346;2023-02-04T09:11:53;147950.56;;;2.00;100.00
48976;BME280;34791;52.752;8.346;2023-02-04T09:14:18;147950.56;;;2.00;100.00
48976;BME280;34791;52.752;8.346;2023-02-04T09:16:43;147950.56;;;2.00;100.00
48976;BME280;34791;52.752;8.346;2023-02-04T09:19:09;147950.56;;;2.00;100.00
48976;BME280;34791;52.752;8.346;2023-02-04T09:21:36;147950.56;;;2.00;100.00
48976;BME280;34791;52.752;8.346;2023-02-04T09:24:02;147950.56;;;2.00;100.00
48976;BME280;34791;52.752;8.346;2023-02-04T09:26:27;147950.56;;;2.00;100.00
48976;BME280;34791;52.752;8.346;2023-02-04T09:28:53;147950.56;;;2.00;100.00
48976;BME280;34791;52.752;8.346;2023-02-04T09:31:18;147950.56;;;2.00;100.00
48976;BME280;34791;52.752;8.346;2023-02-04T09:33:43;147950.56;;;2.00;100.00
48976;BME280;34791;52.752;8.346;2023-02-04T09:36:09;147950.56;;;2.00;100.00
48976;BME280;34791;52.752;8.346;2023-02-04T09:38:34;147950.56;;;2.00;100.00
48976;BME280;34791;52.752;8.346;2023-02-04T09:41:03;147950.56;;;2.00;100.00
48976;BME280;34791;52.752;8.346;2023-02-04T09:43:35;147950.56;;;2.00;100.00
48976;BME280;34791;52.752;8.346;2023-02-04T09:46:03;147950.56;;;2.00;100.00
48976;BME280;34791;52.752;8.346;2023-02-04T09:48:28;147950.56;;;2.00;100.00
48976;BME280;34791;52.752;8.346;2023-02-04T09:51:03;147950.56;;;2.00;100.00
48976;BME280;34791;52.752;8.346;2023-02-04T09:53:33;147950.56;;;2.00;100.00
48976;BME280;34791;52.752;8.346;2023-02-04T09:56:01;147950.56;;;2.00;100.00
48976;BME280;34791;52.752;8.346;2023-02-04T09:58:31;147950.56;;;2.00;100.00
48976;BME280;34791;52.752;8.346;2023-02-04T10:01:00;147950.56;;;2.00;100.00
48976;BME280;34791;52.752;8.346;2023-02-04T10:03:30;147950.56;;;2.00;100.00
48976;BME280;34791;52.752;8.346;2023-02-04T10:05:55;147950.56;;;2.00;100.00
48976;BME280;34791;52.752;8.346;2023-02-04T10:08:27;147950.56;;;2.00;100.00
48976;BME280;34791;52.752;8.346;2023-02-04T10:10:53;147950.56;;;2.00;100.00
48976;BME280;34791;52.752;8.346;2023-02-04T10:13:21;147950.56;;;2.00;100.00
48976;BME280;34791;52.752;8.346;2023-02-04T10:15:49;147950.56;;;2.00;100.00
48976;BME280;34791;52.752;8.346;2023-02-04T10:18:20;147950.56;;;2.00;100.00
48976;BME280;34791;52.752;8.346;2023-02-04T10:20:47;147950.56;;;2.00;100.00
48976;BME280;34791;52.752;8.346;2023-02-04T10:23:12;147950.56;;;2.00;100.00
48976;BME280;34791;52.752;8.346;2023-02-04T10:25:38;147950.56;;;2.00;100.00
48976;BME280;34791;52.752;8.346;2023-02-04T10:28:03;147950.56;;;2.00;100.00
48976;BME280;34791;52.752;8.346;2023-02-04T10:30:36;147950.56;;;2.00;100.00
48976;BME280;34791;52.752;8.346;2023-02-04T10:33:22;147950.56;;;2.00;100.00
48976;BME280;34791;52.752;8.346;2023-02-04T10:35:51;147950.56;;;2.00;100.00
48976;BME280;34791;52.752;8.346;2023-02-04T10:38:17;147950.56;;;2.00;100.00
48976;BME280;34791;52.752;8.346;2023-02-04T10:40:43;147950.56;;;2.00;100.00
48976;BME280;34791;52.752;8.346;2023-02-04T10:43:14;147950.56;;;2.00;100.00
48976;BME280;34791;52.752;8.346;2023-02-04T10:45:45;147950.56;;;2.00;100.00
48976;BME280;34791;52.752;8.346;2023-02-04T10:48:16;147950.56;;;2.00;100.00
48976;BME280;34791;52.752;8.346;2023-02-04T10:50:42;147950.56;;;2.00;100.00
48976;BME280;34791;52.752;8.346;2023-02-04T10:53:09;147950.56;;;2.00;100.00
48976;BME280;34791;52.752;8.346;2023-02-04T10:55:54;147950.56;;;2.00;100.00
48976;BME280;34791;52.752;8.346;2023-02-04T10:58:27;147950.56;;;2.00;100.00
48976;BME280;34791;52.752;8.346;2023-02-04T11:00:53;147950.56;;;2.00;100.00
48976;BME280;34791;52.752;8.346;2023-02-04T11:03:25;147950.56;;;2.00;100.00
48976;BME280;34791;52.752;8.346;2023-02-04T11:05:51;147950.56;;;2.00;100.00
48976;BME280;34791;52.752;8.346;2023-02-04T11:08:20;147950.56;;;2.00;100.00
48976;BME280;34791;52.752;8.346;2023-02-04T11:10:50;147950.56;;;2.00;100.00
48976;BME280;34791;52.752;8.346;2023-02-04T11:13:38;147950.56;;;2.00;100.00
48976;BME280;34791;52.752;8.346;2023-02-04T11:16:12;147950.56;;;2.00;100.00
48976;BME280;34791;52.752;8.346;2023-02-04T11:23:48;147950.56;;;2.00;100.00
48976;BME280;34791;52.752;8.346;2023-02-04T11:26:16;147950.56;;;2.00;100.00
48976;BME280;34791;52.752;8.346;2023-02-04T11:28:55;147950.56;;;2.00;100.00
48976;BME280;34791;52.752;8.346;2023-02-04T11:36:48;147950.56;;;2.00;100.00
48976;BME280;34791;52.752;8.346;2023-02-04T11:39:15;147950.56;;;2.00;100.00
48976;BME280;34791;52.752;8.346;2023-02-04T11:41:44;147950.56;;;2.00;100.00
48976;BME280;34791;52.752;8.346;2023-02-04T11:44:11;147950.56;;;2.00;100.00
48976;BME280;34791;52.752;8.346;2023-02-04T11:46:37;147950.56;;;2.00;100.00
48976;BME280;34791;52.752;8.346;2023-02-04T11:49:02;147950.56;;;2.00;100.00
48976;BME280;34791;52.752;8.346;2023-02-04T11:51:32;147950.56;;;2.00;100.00
48976;BME280;34791;52.752;8.346;2023-02-04T11:53:58;147950.56;;;2.00;100.00
48976;BME280;34791;52.752;8.346;2023-02-04T11:56:29;147950.56;;;2.00;100.00
48976;BME280;34791;52.752;8.346;2023-02-04T11:58:56;147950.56;;;2.00;100.00
48976;BME280;34791;52.752;8.346;2023-02-04T12:01:24;147950.56;;;2.00;100.00
48976;BME280;34791;52.752;8.346;2023-02-04T12:04:02;147950.56;;;2.00;100.00
48976;BME280;34791;52.752;8.346;2023-02-04T12:06:30;147950.56;;;2.00;100.00
48976;BME280;34791;52.752;8.346;2023-02-04T12:11:51;147950.56;;;2.00;100.00
48976;BME280;34791;52.752;8.346;2023-02-04T12:14:18;147950.56;;;2.00;100.00
48976;BME280;34791;52.752;8.346;2023-02-04T12:16:48;147950.56;;;2.00;100.00
48976;BME280;34791;52.752;8.346;2023-02-04T12:19:15;147950.56;;;2.00;100.00
48976;BME280;34791;52.752;8.346;2023-02-04T12:21:41;147950.56;;;2.00;100.00
48976;BME280;34791;52.752;8.346;2023-02-04T12:24:07;147950.56;;;2.00;100.00
48976;BME280;34791;52.752;8.346;2023-02-04T12:26:33;147950.56;;;2.00;100.00
48976;BME280;34791;52.752;8.346;2023-02-04T12:28:59;147950.56;;;2.00;100.00
48976;BME280;34791;52.752;8.346;2023-02-04T12:31:27;147950.56;;;2.00;100.00
48976;BME280;34791;52.752;8.346;2023-02-04T12:33:52;147950.56;;;2.00;100.00
48976;BME280;34791;52.752;8.346;2023-02-04T12:36:18;147950.56;;;2.00;100.00
48976;BME280;34791;52.752;8.346;2023-02-04T12:38:44;147950.56;;;2.00;100.00
48976;BME280;34791;52.752;8.346;2023-02-04T12:41:09;147950.56;;;2.00;100.00
48976;BME280;34791;52.752;8.346;2023-02-04T12:43:34;147950.56;;;2.00;100.00
48976;BME280;34791;52.752;8.346;2023-02-04T12:46:00;147950.56;;;2.00;100.00
48976;BME280;34791;52.752;8.346;2023-02-04T12:48:25;147950.56;;;2.00;100.00
48976;BME280;34791;52.752;8.346;2023-02-04T12:50:51;147950.56;;;2.00;100.00
48976;BME280;34791;52.752;8.346;2023-02-04T12:53:16;147950.56;;;2.00;100.00
48976;BME280;34791;52.752;8.346;2023-02-04T12:55:41;147950.56;;;2.00;100.00
48976;BME280;34791;52.752;8.346;2023-02-04T12:58:07;147950.56;;;2.00;100.00
48976;BME280;34791;52.752;8.346;2023-02-04T13:00:32;147950.56;;;2.00;100.00